Terminal Aerodrome Forecast
Issued by NWS Binghamton, NY

Home | Current Version | Previous Version | Text Only | Print | Product List | Glossary On
Versions: 1 2 3 4 5 6 7 8 9 10 11 12 13 14 15 16 17 18
000
FTUS41 KBGM 271000 AAB
TAFBGM
TAF AMD
KBGM 271014Z 2710/2806 20005KT P6SM SCT025 BKN200
      TEMPO 2710/2714 OVC025
     FM271400 20010KT P6SM BKN045=

USA.gov is the U.S. government's official web portal to all federal, state and local government web resources and services.